CED weather

Cedros Airport
Mazapil, Zacatecas, Mexico

Public forecast

Using degrees Celsius for public forecast. Weather courtesy of forecast.io.

METAR (pilot weather report)

Closest report is Plan De Guadalupe International Airport, 72.4 nm (134.0 km) NE. Retrieved 2019/04/25 09:40 UTC (42 minutes ago):

MMIO 250940Z 00000KT 8SM SCT020 12/07 A3012 RMK 8/500 HZY

TAF (pilot weather forecast)

Closest forecast is Plan De Guadalupe International Airport, 72.4 nm (134.0 km) NE. Retrieved 2019/04/25 06:21 UTC (4 hours ago):

TAF MMIO 250518Z 2506/2606 36010KT P6SM BKN020 TEMPO 2511/2515 4SM HZ BKN010 FM251800 36014KT P6SM SCT030 BKN250 FM260500 02008KT P6SM SCT250